Time;durP1;ratioP1;P1;durP2;ratioP2;P2;SDS_P1;SDS_P2;PMS_P1;PMS_P2;Temp;Humidity;BMP_temperature;BMP_pressure;BME280_temperature;BME280_humidity;BME280_pressure;Samples;Min_cycle;Max_cycle;Signal;HPM_P1;HPM_P2
2022/08/06 00:00:14;;;;;;;0.80;0.80;;;20.50;59.30;22.70;94333.00;;;;10474736;28;45374;-62
2022/08/06 00:05:36;;;;;;;1.38;0.73;;;20.50;59.30;22.70;94328.00;;;;10489181;28;45135;-62
2022/08/06 00:10:57;;;;;;;1.88;0.90;;;20.50;59.30;22.70;94325.00;;;;10475055;28;45133;-62
2022/08/06 00:16:17;;;;;;;0.93;0.65;;;20.50;59.40;22.70;94339.00;;;;10475093;28;45327;-62
2022/08/06 00:21:41;;;;;;;0.90;0.80;;;20.50;59.40;22.70;94333.00;;;;10474451;28;45149;-62
2022/08/06 00:27:01;;;;;;;1.20;0.88;;;20.50;59.60;22.70;94328.00;;;;10473314;28;45227;-62
2022/08/06 00:32:22;;;;;;;0.80;0.77;;;20.50;59.50;22.70;94328.00;;;;10474514;28;45245;-62
2022/08/06 00:37:44;;;;;;;1.02;0.90;;;20.50;59.70;22.70;94321.00;;;;10472618;28;45240;-62
2022/08/06 00:43:06;;;;;;;1.02;0.80;;;20.50;59.70;22.70;94313.00;;;;10473494;28;45210;-62
2022/08/06 00:48:27;;;;;;;0.90;0.63;;;20.50;59.80;22.70;94321.00;;;;10473548;28;45276;-62
2022/08/06 00:53:49;;;;;;;0.80;0.60;;;20.50;59.80;22.70;94325.00;;;;10473376;28;45359;-62
2022/08/06 00:59:10;;;;;;;1.20;0.90;;;20.50;59.60;22.70;94320.00;;;;10470160;28;45307;-62
2022/08/06 01:04:30;;;;;;;1.60;1.00;;;20.50;59.80;22.70;94328.00;;;;10482918;28;45248;-62
2022/08/06 01:09:52;;;;;;;1.48;0.85;;;20.50;59.80;22.70;94331.00;;;;10472555;28;45257;-63
2022/08/06 01:15:13;;;;;;;1.23;0.85;;;20.50;59.70;22.70;94344.00;;;;10472841;28;45228;-62
2022/08/06 01:20:50;;;;;;;1.17;0.80;;;20.50;59.70;22.70;94341.00;;;;10473072;28;45262;-62
2022/08/06 01:26:34;;;;;;;1.40;0.90;;;20.50;60.30;22.70;94333.00;;;;10471792;28;45302;-62
2022/08/06 01:32:04;;;;;;;1.30;0.90;;;20.40;59.80;22.70;94331.00;;;;10472611;28;45251;-62
2022/08/06 01:37:31;;;;;;;1.27;0.77;;;20.50;59.80;22.70;94332.00;;;;10470366;28;45460;-62
2022/08/06 01:42:55;;;;;;;1.58;1.00;;;20.50;59.80;22.60;94336.00;;;;10472021;28;45351;-62
2022/08/06 01:48:22;;;;;;;1.35;0.90;;;20.50;59.70;22.70;94346.00;;;;10473207;28;45244;-62
2022/08/06 01:53:43;;;;;;;2.20;1.10;;;20.50;59.80;22.70;94339.00;;;;10471001;28;45205;-62
2022/08/06 01:59:06;;;;;;;1.92;0.80;;;20.50;59.80;22.70;94348.00;;;;10471022;28;45185;-62
2022/08/06 02:04:36;;;;;;;1.77;1.20;;;20.50;59.60;22.60;94345.00;;;;10479260;28;45248;-61
2022/08/06 02:09:58;;;;;;;1.10;0.90;;;20.50;59.70;22.60;94341.00;;;;10463333;28;45341;-62
2022/08/06 02:15:24;;;;;;;1.40;1.00;;;20.50;59.70;22.70;94350.00;;;;10469586;28;45157;-61
2022/08/06 02:20:49;;;;;;;1.60;1.00;;;20.50;59.70;22.70;94352.00;;;;10470621;28;45276;-62
2022/08/06 02:26:12;;;;;;;1.52;1.00;;;20.40;59.50;22.60;94348.00;;;;10469961;28;45316;-62
2022/08/06 02:31:33;;;;;;;2.00;1.33;;;20.50;59.60;22.60;94346.00;;;;10470461;28;45268;-62
2022/08/06 02:36:59;;;;;;;1.48;1.00;;;20.40;59.40;22.60;94328.00;;;;10468584;28;45214;-62
2022/08/06 02:42:26;;;;;;;1.77;1.20;;;20.40;59.50;22.60;94340.00;;;;10469995;28;45153;-62
2022/08/06 02:47:54;;;;;;;1.88;1.40;;;20.40;59.50;22.60;94345.00;;;;10470627;28;45263;-62
2022/08/06 02:53:20;;;;;;;1.92;1.20;;;20.40;59.50;22.60;94348.00;;;;10469909;28;45236;-62
2022/08/06 02:58:45;;;;;;;1.30;1.17;;;20.40;59.40;22.60;94346.00;;;;10468858;28;45307;-62
2022/08/06 03:04:07;;;;;;;2.10;1.50;;;20.40;59.50;22.60;94349.00;;;;10475611;28;45279;-62
2022/08/06 03:09:29;;;;;;;1.85;1.45;;;20.40;59.50;22.60;94345.00;;;;10480854;28;45271;-62
2022/08/06 03:14:53;;;;;;;2.17;1.50;;;20.40;59.40;22.60;94361.00;;;;10469446;28;45251;-62
2022/08/06 03:20:19;;;;;;;1.83;1.40;;;20.40;59.30;22.60;94357.00;;;;10468774;28;45191;-62
2022/08/06 03:25:44;;;;;;;2.40;1.43;;;20.40;59.40;22.60;94357.00;;;;10470672;28;44602;-62
2022/08/06 03:31:06;;;;;;;2.13;1.50;;;20.40;59.40;22.60;94349.00;;;;10475854;28;45232;-62
2022/08/06 03:36:27;;;;;;;3.40;1.48;;;20.40;59.30;22.60;94357.00;;;;10475647;28;45235;-62
2022/08/06 03:41:51;;;;;;;2.00;1.40;;;20.40;59.30;22.60;94358.00;;;;10462358;28;45131;-62
2022/08/06 03:47:20;;;;;;;2.40;1.50;;;20.40;59.30;22.60;94355.00;;;;10475498;28;45303;-62
2022/08/06 03:52:47;;;;;;;1.90;1.40;;;20.40;59.30;22.60;94355.00;;;;10475654;28;45207;-62
2022/08/06 03:58:12;;;;;;;2.30;1.60;;;20.40;59.20;22.60;94366.00;;;;10475656;28;45451;-61
2022/08/06 04:03:35;;;;;;;2.17;1.50;;;20.40;59.20;22.60;94354.00;;;;10475525;28;45214;-62
2022/08/06 04:08:57;;;;;;;1.90;1.30;;;20.40;59.00;22.60;94370.00;;;;10486583;28;45277;-61
2022/08/06 04:14:19;;;;;;;1.98;1.30;;;20.40;59.10;22.60;94379.00;;;;10475514;28;45466;-62
2022/08/06 04:19:42;;;;;;;1.60;1.30;;;20.40;59.00;22.60;94374.00;;;;10474350;28;45128;-62
2022/08/06 04:25:04;;;;;;;1.70;1.23;;;20.40;59.00;22.50;94382.00;;;;10474263;28;45227;-62
2022/08/06 04:30:26;;;;;;;1.13;1.00;;;20.30;58.90;22.50;94383.00;;;;10473882;28;45284;-62
2022/08/06 04:35:48;;;;;;;2.40;1.27;;;20.30;58.90;22.50;94399.00;;;;10473427;28;45188;-62
2022/08/06 04:41:09;;;;;;;1.92;1.13;;;20.30;58.80;22.50;94404.00;;;;10468374;28;45784;-62
2022/08/06 04:46:33;;;;;;;1.63;1.02;;;20.30;58.70;22.50;94410.00;;;;10473617;28;45447;-62
2022/08/06 04:51:54;;;;;;;2.08;1.20;;;20.40;58.70;22.50;94398.00;;;;10474237;28;45325;-62
2022/08/06 04:57:14;;;;;;;1.10;1.00;;;20.30;58.60;22.50;94401.00;;;;10472301;28;45311;-62
2022/08/06 05:02:36;;;;;;;1.98;0.90;;;20.40;58.60;22.50;94420.00;;;;10473135;28;45227;-62
2022/08/06 05:07:59;;;;;;;1.25;1.00;;;20.30;58.50;22.50;94433.00;;;;10483976;28;45403;-62
2022/08/06 05:13:23;;;;;;;1.48;1.02;;;20.30;58.50;22.50;94433.00;;;;10473214;28;45512;-62
2022/08/06 05:18:51;;;;;;;1.33;0.82;;;20.40;58.50;22.50;94441.00;;;;10473388;28;45290;-62
2022/08/06 05:24:13;;;;;;;1.70;0.90;;;20.30;58.70;22.50;94451.00;;;;10472473;28;45295;-62
2022/08/06 05:29:34;;;;;;;1.30;0.93;;;20.30;58.30;22.50;94450.00;;;;10472040;28;45540;-62
2022/08/06 05:34:56;;;;;;;1.15;0.80;;;20.40;58.30;22.50;94443.00;;;;10472151;28;44681;-62
2022/08/06 05:40:16;;;;;;;1.20;0.90;;;20.30;58.20;22.50;94458.00;;;;10470651;28;45296;-62
2022/08/06 05:45:40;;;;;;;2.67;1.23;;;20.30;57.90;22.50;94470.00;;;;10471446;28;45165;-62
2022/08/06 05:51:09;;;;;;;2.28;0.95;;;20.30;57.60;22.50;94468.00;;;;10470406;28;45194;-62
2022/08/06 05:56:37;;;;;;;1.00;0.80;;;20.30;57.90;22.50;94476.00;;;;10470276;28;45297;-62
2022/08/06 06:01:58;;;;;;;1.70;0.75;;;20.30;57.90;22.50;94474.00;;;;10471422;28;45203;-62
2022/08/06 06:07:21;;;;;;;1.35;0.88;;;20.30;57.90;22.50;94488.00;;;;10485484;28;45131;-62
2022/08/06 06:12:43;;;;;;;0.95;0.80;;;20.30;57.90;22.50;94494.00;;;;10458945;28;45412;-62
2022/08/06 06:18:19;;;;;;;0.60;0.60;;;20.30;57.90;22.50;94509.00;;;;10470004;28;45351;-62
2022/08/06 06:23:49;;;;;;;1.17;0.70;;;20.30;57.90;22.50;94513.00;;;;10470986;28;45124;-62
2022/08/06 06:29:20;;;;;;;1.67;0.73;;;20.30;57.90;22.50;94512.00;;;;10469811;28;45262;-62
2022/08/06 06:34:52;;;;;;;2.25;0.70;;;20.30;57.90;22.40;94498.00;;;;10470132;28;45193;-62
2022/08/06 06:40:28;;;;;;;1.50;0.63;;;20.30;57.20;22.40;94502.00;;;;10469551;28;45168;-62
2022/08/06 06:45:56;;;;;;;1.25;0.75;;;20.30;56.30;22.40;94498.00;;;;10468564;28;44993;-62
2022/08/06 06:51:25;;;;;;;1.35;0.80;;;20.20;56.00;22.40;94484.00;;;;10468605;28;45484;-62
2022/08/06 06:56:50;;;;;;;1.10;0.60;;;20.20;55.60;22.30;94502.00;;;;10458709;28;45343;-62
2022/08/06 07:02:20;;;;;;;1.00;0.55;;;20.20;55.60;22.30;94502.00;;;;10468924;28;45211;-62
2022/08/06 07:07:43;;;;;;;1.45;0.80;;;20.20;55.20;22.30;94496.00;;;;10485934;28;45151;-62
2022/08/06 07:13:06;;;;;;;1.67;0.70;;;20.10;55.20;22.30;94517.00;;;;10469160;28;45464;-62
2022/08/06 07:18:28;;;;;;;0.75;0.55;;;20.10;55.60;22.30;94507.00;;;;10465498;28;45426;-62
2022/08/06 07:23:51;;;;;;;1.35;0.80;;;20.10;55.50;22.30;94512.00;;;;10466475;28;45306;-62
2022/08/06 07:29:16;;;;;;;1.92;0.50;;;20.10;55.80;22.30;94519.00;;;;10467127;28;45310;-62
2022/08/06 07:34:37;;;;;;;1.77;0.80;;;20.10;56.00;22.30;94508.00;;;;10468226;28;45261;-62
2022/08/06 07:40:01;;;;;;;1.67;0.57;;;20.20;56.00;22.30;94521.00;;;;10468590;28;45229;-62
2022/08/06 07:45:25;;;;;;;0.82;0.50;;;20.20;56.00;22.30;94512.00;;;;10467285;28;45225;-62
2022/08/06 07:50:50;;;;;;;0.93;0.70;;;20.10;56.10;22.30;94525.00;;;;10469159;28;45212;-62
2022/08/06 07:56:11;;;;;;;0.85;0.68;;;20.10;56.00;22.30;94527.00;;;;10466962;28;45298;-62
2022/08/06 08:01:34;;;;;;;1.58;0.60;;;20.20;56.10;22.30;94536.00;;;;10467928;28;45233;-62
2022/08/06 08:06:56;;;;;;;1.55;0.60;;;20.10;55.70;22.30;94530.00;;;;10477973;28;45550;-62
2022/08/06 08:12:18;;;;;;;2.00;0.90;;;20.20;55.50;22.30;94526.00;;;;10471051;28;45165;-62
2022/08/06 08:17:40;;;;;;;1.10;0.65;;;20.10;55.50;22.30;94544.00;;;;10474842;28;45141;-62
2022/08/06 08:23:01;;;;;;;0.90;0.73;;;20.10;55.20;22.20;94530.00;;;;10474781;28;45412;-62
2022/08/06 08:28:22;;;;;;;0.88;0.57;;;20.10;55.20;22.30;94541.00;;;;10476876;28;45664;-61
2022/08/06 08:33:44;;;;;;;1.83;0.82;;;20.10;55.30;22.20;94535.00;;;;10475744;28;45205;-62
2022/08/06 08:39:06;;;;;;;2.30;0.70;;;20.00;55.30;22.20;94541.00;;;;10476183;28;45300;-62
2022/08/06 08:44:27;;;;;;;1.02;0.65;;;20.10;55.10;22.20;94544.00;;;;10477697;28;46952;-62
2022/08/06 08:49:55;;;;;;;1.67;0.80;;;20.00;55.20;22.30;94546.00;;;;10480572;28;45408;-64
2022/08/06 08:55:21;;;;;;;9.63;1.10;;;20.10;55.70;22.20;94546.00;;;;10480708;28;45191;-65
2022/08/06 09:00:41;;;;;;;3.08;1.27;;;20.10;56.10;22.20;94542.00;;;;10480054;28;45290;-66
2022/08/06 09:06:05;;;;;;;2.13;0.90;;;20.10;55.90;22.20;94555.00;;;;10474333;28;45369;-66
2022/08/06 09:11:25;;;;;;;3.47;0.90;;;20.10;55.80;22.20;94571.00;;;;10494183;28;45298;-67
2022/08/06 09:16:46;;;;;;;1.80;1.00;;;20.00;55.80;22.20;94568.00;;;;10472634;28;45244;-66
2022/08/06 09:22:08;;;;;;;2.05;1.00;;;20.10;55.70;22.10;94577.00;;;;10472414;28;45254;-66
2022/08/06 09:27:35;;;;;;;3.20;0.90;;;20.00;55.70;22.10;94565.00;;;;10472436;28;45280;-66
2022/08/06 09:32:56;;;;;;;1.65;0.90;;;20.00;55.70;22.10;94582.00;;;;10472364;28;45236;-66
2022/08/06 09:38:18;;;;;;;2.78;0.90;;;20.00;55.80;22.10;94591.00;;;;10471920;28;45159;-66
2022/08/06 09:43:39;;;;;;;2.08;0.80;;;20.00;55.80;22.10;94579.00;;;;10472152;28;45247;-66
2022/08/06 09:49:02;;;;;;;1.08;0.75;;;20.00;55.70;22.10;94595.00;;;;10470552;28;45334;-66
2022/08/06 09:54:37;;;;;;;1.92;0.80;;;20.00;55.70;22.10;94597.00;;;;10469206;28;45419;-66
2022/08/06 09:59:58;;;;;;;1.30;0.70;;;20.00;55.70;22.10;94586.00;;;;10470199;28;45527;-66
2022/08/06 10:05:19;;;;;;;2.40;1.02;;;20.00;55.50;22.10;94599.00;;;;10468908;28;45189;-66
2022/08/06 10:10:47;;;;;;;1.67;0.80;;;20.00;55.50;22.10;94599.00;;;;10492238;28;45363;-66
2022/08/06 10:16:19;;;;;;;1.20;0.68;;;20.00;55.50;22.10;94604.00;;;;10470801;28;45335;-66
2022/08/06 10:21:43;;;;;;;2.88;0.90;;;20.00;55.40;22.00;94592.00;;;;10470837;28;45187;-66
2022/08/06 10:27:07;;;;;;;1.85;0.70;;;19.90;55.30;22.10;94596.00;;;;10469196;28;45173;-67
2022/08/06 10:32:37;;;;;;;1.05;0.60;;;19.90;56.00;22.10;94572.00;;;;10461391;28;45228;-62
2022/08/06 10:38:03;;;;;;;2.05;0.70;;;20.00;55.40;22.00;94594.00;;;;10467198;28;45277;-62
2022/08/06 10:43:26;;;;;;;2.47;0.60;;;20.00;55.40;22.00;94611.00;;;;10469903;28;45630;-62
2022/08/06 10:48:47;;;;;;;1.00;0.65;;;19.90;55.20;22.00;94600.00;;;;10474473;28;45159;-63
2022/08/06 10:54:09;;;;;;;1.00;0.80;;;19.90;55.30;22.00;94608.00;;;;10472148;28;45220;-63
2022/08/06 10:59:31;;;;;;;0.73;0.55;;;19.90;55.30;22.00;94604.00;;;;10466464;28;45157;-63
2022/08/06 11:04:57;;;;;;;1.35;0.70;;;19.90;55.30;22.00;94591.00;;;;10467501;28;45418;-62
2022/08/06 11:10:51;;;;;;;1.90;0.65;;;19.90;55.30;22.00;94585.00;;;;10477982;28;45181;-63
2022/08/06 11:16:23;;;;;;;1.10;0.80;;;19.90;55.30;22.00;94592.00;;;;10458177;28;45140;-63
2022/08/06 11:21:46;;;;;;;1.00;0.65;;;19.90;55.40;21.90;94596.00;;;;10472368;28;45119;-62
2022/08/06 11:27:52;;;;;;;1.00;0.60;;;19.90;55.60;22.00;94584.00;;;;10470788;28;45370;-63
2022/08/06 11:33:15;;;;;;;1.17;0.60;;;19.90;55.50;21.90;94582.00;;;;10468831;28;44987;-63
2022/08/06 11:39:00;;;;;;;1.05;0.50;;;19.80;55.50;22.00;94564.00;;;;10468346;28;45228;-63
2022/08/06 11:44:23;;;;;;;1.10;0.60;;;19.90;55.50;22.00;94583.00;;;;10470057;28;45145;-63
2022/08/06 11:49:46;;;;;;;2.08;0.70;;;19.90;55.60;21.90;94577.00;;;;10481848;28;45593;-63
2022/08/06 11:55:09;;;;;;;1.95;0.70;;;19.90;55.70;21.90;94575.00;;;;10468939;28;45519;-63
2022/08/06 12:00:31;;;;;;;1.50;0.70;;;19.80;55.80;21.90;94566.00;;;;10476730;28;45230;-62
2022/08/06 12:05:52;;;;;;;0.88;0.60;;;19.90;55.80;22.00;94566.00;;;;10477400;28;45428;-62
2022/08/06 12:11:35;;;;;;;1.58;0.73;;;19.90;55.80;21.90;94562.00;;;;10475728;28;45260;-62
2022/08/06 12:16:57;;;;;;;3.13;0.70;;;19.80;55.90;21.90;94571.00;;;;10474979;28;45261;-62
2022/08/06 12:22:19;;;;;;;0.88;0.60;;;19.80;55.90;22.00;94569.00;;;;10479108;28;45240;-62
2022/08/06 12:27:41;;;;;;;0.85;0.68;;;19.90;55.70;22.00;94566.00;;;;10479234;28;45429;-63
2022/08/06 12:33:03;;;;;;;1.38;0.65;;;19.90;55.70;22.00;94559.00;;;;10480090;28;45173;-63
2022/08/06 12:38:27;;;;;;;1.25;0.70;;;19.90;55.80;21.90;94540.00;;;;10481017;28;45173;-63
2022/08/06 12:43:48;;;;;;;0.93;0.70;;;19.80;55.80;22.00;94547.00;;;;10480773;28;45289;-62
2022/08/06 12:49:10;;;;;;;1.50;0.68;;;19.80;55.90;22.00;94546.00;;;;10479514;28;45413;-62
2022/08/06 12:54:31;;;;;;;1.50;0.50;;;19.90;55.90;22.10;94542.00;;;;10478477;28;45156;-63
2022/08/06 12:59:53;;;;;;;1.50;0.88;;;19.90;55.70;22.10;94539.00;;;;10474760;28;45271;-62
2022/08/06 13:05:15;;;;;;;0.68;0.60;;;19.90;55.60;22.10;94533.00;;;;10473758;28;45329;-62
2022/08/06 13:10:36;;;;;;;2.80;0.80;;;20.00;55.70;22.10;94542.00;;;;10489936;28;45370;-62
2022/08/06 13:16:02;;;;;;;0.95;0.68;;;19.90;55.60;22.10;94530.00;;;;10472673;28;45216;-62
2022/08/06 13:21:25;;;;;;;1.00;0.50;;;20.00;55.70;22.10;94510.00;;;;10473161;28;45227;-62
2022/08/06 13:26:53;;;;;;;0.80;0.70;;;19.90;55.60;22.10;94517.00;;;;10471902;28;45464;-62
2022/08/06 13:32:13;;;;;;;1.77;0.50;;;20.00;55.70;22.10;94529.00;;;;10472206;28;45160;-62
2022/08/06 13:37:49;;;;;;;2.15;0.80;;;20.00;55.50;22.10;94524.00;;;;10471638;28;45280;-62
2022/08/06 13:43:11;;;;;;;1.00;0.50;;;20.00;55.60;22.20;94512.00;;;;10472388;28;45358;-62
2022/08/06 13:48:32;;;;;;;0.70;0.60;;;20.00;55.60;22.20;94519.00;;;;10472107;28;45467;-62
2022/08/06 13:53:54;;;;;;;1.33;0.57;;;20.00;55.50;22.20;94514.00;;;;10471331;28;45292;-62
2022/08/06 13:59:16;;;;;;;0.90;0.70;;;20.00;55.50;22.10;94513.00;;;;10470178;28;45244;-62
2022/08/06 14:04:37;;;;;;;1.20;0.70;;;20.00;55.70;22.10;94513.00;;;;10471897;28;45335;-62
2022/08/06 14:09:59;;;;;;;2.75;0.80;;;20.00;56.50;22.10;94505.00;;;;10484224;28;45182;-62
2022/08/06 14:15:20;;;;;;;1.30;0.75;;;20.00;55.80;22.10;94496.00;;;;10470458;28;45272;-62
2022/08/06 14:20:41;;;;;;;0.95;0.70;;;20.00;55.90;22.10;94505.00;;;;10470945;28;45215;-62
2022/08/06 14:26:07;;;;;;;0.98;0.65;;;20.00;55.90;22.10;94497.00;;;;10470559;28;45147;-62
2022/08/06 14:31:27;;;;;;;1.30;0.77;;;20.00;55.90;22.10;94502.00;;;;10470673;28;45266;-62
2022/08/06 14:36:48;;;;;;;1.17;0.70;;;20.00;56.00;22.10;94500.00;;;;10469539;28;45314;-62
2022/08/06 14:47:53;;;;;;;1.33;0.77;;;20.00;56.00;22.10;94495.00;;;;10451121;28;45390;-62
2022/08/06 14:53:14;;;;;;;1.00;0.70;;;20.00;56.10;22.10;94496.00;;;;10469997;28;45362;-63
2022/08/06 14:58:36;;;;;;;1.40;0.70;;;20.00;56.00;22.10;94502.00;;;;10468121;28;44686;-62
2022/08/06 15:03:56;;;;;;;2.40;0.80;;;20.00;56.10;22.10;94501.00;;;;10469123;28;45299;-62
2022/08/06 15:09:17;;;;;;;1.00;0.63;;;20.00;56.10;22.10;94497.00;;;;10483255;28;45240;-62
2022/08/06 15:14:39;;;;;;;1.05;0.70;;;20.00;56.10;22.20;94496.00;;;;10464305;28;45179;-62
2022/08/06 15:19:59;;;;;;;1.65;0.80;;;20.00;56.00;22.10;94495.00;;;;10468643;28;45295;-62
2022/08/06 15:25:20;;;;;;;1.08;0.80;;;20.00;55.90;22.20;94491.00;;;;10476219;28;45172;-63
2022/08/06 15:30:42;;;;;;;1.20;0.73;;;20.00;55.80;22.20;94485.00;;;;10485339;28;45192;-68
2022/08/06 15:36:04;;;;;;;1.23;0.70;;;20.10;55.90;22.20;94466.00;;;;10473325;28;45156;-69
2022/08/06 15:41:27;;;;;;;1.17;0.80;;;20.20;55.80;22.20;94467.00;;;;10473922;28;45234;-66
2022/08/06 15:46:48;;;;;;;1.17;0.70;;;20.20;55.80;22.20;94473.00;;;;10459521;28;45328;-66
2022/08/06 15:52:09;;;;;;;1.90;0.70;;;20.10;55.90;22.20;94476.00;;;;10476201;28;45459;-66
2022/08/06 15:57:30;;;;;;;1.05;0.60;;;20.10;56.00;22.20;94481.00;;;;10473143;28;45258;-66
2022/08/06 16:02:51;;;;;;;1.02;0.63;;;20.00;56.00;22.20;94482.00;;;;10472147;28;45250;-66
2022/08/06 16:08:13;;;;;;;1.15;0.63;;;20.10;55.90;22.20;94476.00;;;;10480093;28;45261;-66
2022/08/06 16:13:34;;;;;;;0.95;0.80;;;20.00;55.90;22.20;94483.00;;;;10482558;28;45256;-67
2022/08/06 16:18:56;;;;;;;0.93;0.75;;;20.10;55.80;22.30;94472.00;;;;10482933;28;45328;-66
2022/08/06 16:24:17;;;;;;;1.20;0.68;;;20.20;55.60;22.30;94469.00;;;;10473568;28;45407;-68
2022/08/06 16:29:37;;;;;;;1.38;0.80;;;20.20;55.60;22.30;94467.00;;;;10476022;28;45195;-67
2022/08/06 16:35:00;;;;;;;0.77;0.68;;;20.20;55.50;22.30;94456.00;;;;10474035;28;45429;-65
2022/08/06 16:40:21;;;;;;;1.30;0.70;;;20.20;55.60;22.30;94461.00;;;;10472409;28;45270;-65
2022/08/06 16:45:41;;;;;;;1.23;0.75;;;20.20;55.60;22.30;94461.00;;;;10488984;28;45323;-65
2022/08/06 16:51:04;;;;;;;1.38;0.80;;;20.30;55.60;22.30;94453.00;;;;10473664;28;45294;-66
2022/08/06 16:56:24;;;;;;;1.38;0.90;;;20.20;55.60;22.30;94447.00;;;;10471755;28;45541;-66
2022/08/06 17:02:35;;;;;;;1.33;0.80;;;20.20;55.60;22.30;94453.00;;;;10488013;28;45115;-69
2022/08/06 17:07:27;;;;;;;1.20;0.90;;;20.20;55.50;22.20;94445.00;;;;10475915;28;45246;-68
2022/08/06 17:12:49;;;;;;;1.67;0.90;;;20.20;55.20;22.30;94448.00;;;;10479477;28;45239;-67
2022/08/06 17:18:09;;;;;;;1.60;1.00;;;20.20;55.20;22.20;94448.00;;;;10475928;28;45252;-68
2022/08/06 17:23:31;;;;;;;1.35;1.00;;;20.20;55.30;22.30;94455.00;;;;10487464;28;45244;-67
2022/08/06 17:28:51;;;;;;;2.00;1.00;;;20.20;55.20;22.30;94453.00;;;;10473233;28;45192;-63
2022/08/06 17:34:12;;;;;;;1.85;1.10;;;20.20;55.20;22.30;94437.00;;;;10471492;28;45204;-63
2022/08/06 17:39:34;;;;;;;0.85;0.80;;;20.20;55.20;22.20;94440.00;;;;10473394;28;45425;-62
2022/08/06 17:44:54;;;;;;;2.17;1.15;;;20.10;55.20;22.20;94453.00;;;;10459475;28;45150;-63
2022/08/06 17:50:15;;;;;;;1.27;0.95;;;20.10;55.80;22.20;94456.00;;;;10477157;28;45205;-63
2022/08/06 17:55:37;;;;;;;1.63;0.80;;;20.10;55.20;22.10;94459.00;;;;10478526;28;45187;-62
2022/08/06 18:00:58;;;;;;;2.20;1.10;;;20.10;55.20;22.10;94465.00;;;;10478349;28;45283;-63
2022/08/06 18:06:19;;;;;;;1.73;1.08;;;20.00;55.10;22.10;94477.00;;;;10466822;28;45487;-62
2022/08/06 18:11:41;;;;;;;1.20;1.10;;;20.00;55.20;22.10;94482.00;;;;10496120;28;45235;-63
2022/08/06 18:17:02;;;;;;;1.33;1.00;;;20.00;55.20;22.10;94496.00;;;;10477828;28;45167;-62
2022/08/06 18:22:23;;;;;;;1.60;1.15;;;20.00;55.40;22.10;94470.00;;;;10438173;28;45124;-63
2022/08/06 18:27:45;;;;;;;1.85;1.08;;;19.80;55.20;22.00;94495.00;;;;10477695;28;45398;-62
2022/08/06 18:33:07;;;;;;;1.95;1.20;;;19.90;55.20;22.00;94498.00;;;;10477212;28;45302;-63
2022/08/06 18:38:29;;;;;;;1.30;1.20;;;20.00;55.40;22.00;94499.00;;;;10476906;28;45192;-62
2022/08/06 18:43:51;;;;;;;1.63;1.20;;;20.00;55.30;22.00;94502.00;;;;10476766;28;45238;-63
2022/08/06 18:49:12;;;;;;;2.25;1.15;;;19.90;55.20;22.00;94481.00;;;;10477007;28;45198;-62
2022/08/06 18:54:33;;;;;;;2.17;1.35;;;19.90;55.20;22.00;94475.00;;;;10477333;28;45267;-63
2022/08/06 18:59:55;;;;;;;2.08;1.20;;;19.90;55.30;22.00;94480.00;;;;10475906;28;45174;-63
2022/08/06 19:05:16;;;;;;;1.27;1.02;;;19.90;55.30;22.00;94465.00;;;;10476814;28;45430;-63
2022/08/06 19:10:38;;;;;;;1.65;1.27;;;19.90;55.20;22.00;94471.00;;;;10486643;28;45474;-63
2022/08/06 19:16:00;;;;;;;2.00;1.10;;;19.90;55.20;22.00;94472.00;;;;10457202;28;45196;-63
2022/08/06 19:21:20;;;;;;;1.08;1.00;;;19.90;55.30;22.00;94471.00;;;;10469120;28;45196;-63
2022/08/06 19:26:40;;;;;;;1.48;1.27;;;19.90;55.10;22.00;94464.00;;;;10468000;28;45319;-63
2022/08/06 19:32:03;;;;;;;1.42;1.10;;;19.90;54.90;22.00;94456.00;;;;10468600;28;45272;-63
2022/08/06 19:37:23;;;;;;;1.77;1.17;;;19.90;54.90;22.00;94462.00;;;;10468130;28;45252;-63
2022/08/06 19:42:43;;;;;;;1.17;0.93;;;19.90;54.80;22.00;94462.00;;;;10468264;28;45176;-63
2022/08/06 19:48:06;;;;;;;1.77;1.27;;;19.90;54.80;22.00;94469.00;;;;10468244;28;45191;-63
2022/08/06 19:53:27;;;;;;;1.92;1.20;;;19.90;54.70;21.90;94479.00;;;;10468431;28;45282;-63
2022/08/06 19:58:47;;;;;;;1.98;1.30;;;19.90;54.70;21.90;94471.00;;;;10468523;28;45478;-64
2022/08/06 20:04:10;;;;;;;1.67;1.27;;;19.90;54.80;21.90;94481.00;;;;10467690;28;45222;-63
2022/08/06 20:09:30;;;;;;;2.35;1.17;;;19.80;54.80;21.90;94483.00;;;;10479732;28;45531;-63
2022/08/06 20:14:51;;;;;;;1.67;1.13;;;19.80;54.80;21.90;94473.00;;;;10467500;28;45279;-63
2022/08/06 20:20:14;;;;;;;1.42;1.20;;;19.80;54.80;21.90;94485.00;;;;10474469;28;45184;-63
2022/08/06 20:25:34;;;;;;;1.40;1.15;;;19.80;54.90;21.80;94476.00;;;;10473348;28;45195;-63
2022/08/06 20:30:55;;;;;;;1.50;1.33;;;19.80;54.90;21.90;94473.00;;;;10474588;28;45161;-63
2022/08/06 20:36:17;;;;;;;1.95;1.25;;;19.80;54.70;21.80;94460.00;;;;10474599;28;45152;-63
2022/08/06 20:41:37;;;;;;;1.50;1.10;;;19.80;54.90;21.80;94486.00;;;;10474026;28;45208;-63
2022/08/06 20:46:58;;;;;;;1.55;0.98;;;19.80;55.00;21.90;94485.00;;;;10473349;28;45237;-63
2022/08/06 20:52:21;;;;;;;1.33;1.08;;;19.80;54.80;21.80;94483.00;;;;10473671;28;45185;-63
2022/08/06 20:57:42;;;;;;;2.13;1.30;;;19.80;54.80;21.80;94463.00;;;;10473069;28;45175;-63
2022/08/06 21:03:03;;;;;;;1.65;1.20;;;19.80;54.80;21.80;94480.00;;;;10473208;28;45210;-64
2022/08/06 21:08:25;;;;;;;1.45;1.23;;;19.80;54.80;21.80;94479.00;;;;10473149;28;45291;-63
2022/08/06 21:13:45;;;;;;;1.95;1.25;;;19.70;54.80;21.80;94464.00;;;;10479759;28;45286;-63
2022/08/06 21:19:06;;;;;;;4.15;1.20;;;19.80;54.70;21.80;94473.00;;;;10467144;28;45267;-63
2022/08/06 21:24:28;;;;;;;1.67;0.95;;;19.70;54.70;21.80;94449.00;;;;10471041;28;45176;-63
2022/08/06 21:29:49;;;;;;;1.45;1.05;;;19.70;54.40;21.80;94448.00;;;;10472233;28;45280;-63
2022/08/06 21:35:10;;;;;;;1.95;1.15;;;19.70;54.50;21.80;94452.00;;;;10472041;28;45136;-63
2022/08/06 21:40:32;;;;;;;2.30;1.20;;;19.70;54.40;21.80;94457.00;;;;10473062;28;45536;-63
2022/08/06 21:45:53;;;;;;;2.30;1.23;;;19.70;54.20;21.80;94465.00;;;;10471789;28;45138;-63
2022/08/06 21:51:14;;;;;;;2.00;1.30;;;19.70;54.20;21.80;94459.00;;;;10472322;28;45282;-63
2022/08/06 21:56:36;;;;;;;2.05;1.30;;;19.70;54.00;21.80;94459.00;;;;10471080;28;45171;-64
2022/08/06 22:01:56;;;;;;;1.80;1.35;;;19.70;54.00;21.80;94455.00;;;;10472576;28;45213;-64
2022/08/06 22:07:18;;;;;;;2.05;1.10;;;19.70;53.80;21.70;94447.00;;;;10472044;28;45179;-63
2022/08/06 22:12:40;;;;;;;2.35;1.30;;;19.70;53.90;21.80;94443.00;;;;10480674;28;45319;-63
2022/08/06 22:18:00;;;;;;;2.03;1.33;;;19.70;53.80;21.70;94428.00;;;;10470593;28;45173;-63
2022/08/06 22:23:21;;;;;;;1.77;1.23;;;19.70;53.70;21.70;94413.00;;;;10470483;28;45176;-63
2022/08/06 22:28:43;;;;;;;1.80;1.20;;;19.60;53.60;21.70;94415.00;;;;10471638;28;45259;-63
2022/08/06 22:34:03;;;;;;;2.50;1.30;;;19.60;53.40;21.70;94407.00;;;;10469788;28;45224;-63
2022/08/06 22:39:24;;;;;;;2.55;1.42;;;19.60;53.40;21.70;94405.00;;;;10470572;28;45426;-63
2022/08/06 22:44:46;;;;;;;1.30;1.15;;;19.60;53.30;21.70;94406.00;;;;10470203;28;45239;-63
2022/08/06 22:50:08;;;;;;;2.08;1.20;;;19.60;53.30;21.70;94397.00;;;;10470196;28;45265;-63
2022/08/06 22:55:30;;;;;;;2.08;1.25;;;19.60;53.30;21.70;94382.00;;;;10470467;28;45599;-64
2022/08/06 23:00:52;;;;;;;2.92;1.48;;;19.60;53.20;21.60;94393.00;;;;10469860;28;45371;-64
2022/08/06 23:06:12;;;;;;;2.05;1.30;;;19.60;53.20;21.70;94396.00;;;;10469464;28;45295;-64
2022/08/06 23:11:33;;;;;;;1.83;1.33;;;19.60;53.00;21.60;94389.00;;;;10487374;28;45219;-63
2022/08/06 23:16:55;;;;;;;1.50;1.40;;;19.60;53.00;21.60;94385.00;;;;10469565;28;45134;-63
2022/08/06 23:22:15;;;;;;;2.17;1.42;;;19.60;53.00;21.60;94394.00;;;;10469575;28;45173;-64
2022/08/06 23:27:37;;;;;;;1.52;1.30;;;19.60;52.90;21.60;94381.00;;;;10468655;28;45207;-63
2022/08/06 23:32:59;;;;;;;2.25;1.20;;;19.50;52.90;21.60;94387.00;;;;10469073;28;45190;-64
2022/08/06 23:38:19;;;;;;;1.90;1.27;;;19.50;53.00;21.60;94384.00;;;;10469211;28;45252;-63
2022/08/06 23:43:40;;;;;;;2.10;1.25;;;19.50;53.00;21.60;94371.00;;;;10472632;28;45208;-63